sensor_id;sensor_type;location;lat;lon;timestamp;temperature;humidity
4509;DHT22;2267;48.816;9.230;2023-11-22T00:01:04;10.80;99.90
4509;DHT22;2267;48.816;9.230;2023-11-22T00:03:31;10.70;99.90
4509;DHT22;2267;48.816;9.230;2023-11-22T00:05:58;10.60;99.90
4509;DHT22;2267;48.816;9.230;2023-11-22T00:08:25;10.60;99.90
4509;DHT22;2267;48.816;9.230;2023-11-22T00:10:52;10.50;99.90
4509;DHT22;2267;48.816;9.230;2023-11-22T00:13:19;10.50;99.90
4509;DHT22;2267;48.816;9.230;2023-11-22T00:15:49;10.40;99.90
4509;DHT22;2267;48.816;9.230;2023-11-22T00:18:19;10.30;99.90
4509;DHT22;2267;48.816;9.230;2023-11-22T00:20:46;10.30;99.90
4509;DHT22;2267;48.816;9.230;2023-11-22T00:23:15;10.20;99.90
4509;DHT22;2267;48.816;9.230;2023-11-22T00:25:42;10.20;99.90
4509;DHT22;2267;48.816;9.230;2023-11-22T00:28:09;10.20;99.90
4509;DHT22;2267;48.816;9.230;2023-11-22T00:30:36;10.10;99.90
4509;DHT22;2267;48.816;9.230;2023-11-22T00:33:03;10.10;99.90
4509;DHT22;2267;48.816;9.230;2023-11-22T00:35:31;10.00;99.90
4509;DHT22;2267;48.816;9.230;2023-11-22T00:37:58;10.00;99.90
4509;DHT22;2267;48.816;9.230;2023-11-22T00:40:25;10.00;99.90
4509;DHT22;2267;48.816;9.230;2023-11-22T00:42:52;10.00;99.90
4509;DHT22;2267;48.816;9.230;2023-11-22T00:45:19;10.10;99.90
4509;DHT22;2267;48.816;9.230;2023-11-22T00:47:46;10.00;99.90
4509;DHT22;2267;48.816;9.230;2023-11-22T00:50:13;10.00;99.90
4509;DHT22;2267;48.816;9.230;2023-11-22T00:52:40;10.00;99.90
4509;DHT22;2267;48.816;9.230;2023-11-22T00:55:11;10.00;99.90
4509;DHT22;2267;48.816;9.230;2023-11-22T00:57:38;10.00;99.90
4509;DHT22;2267;48.816;9.230;2023-11-22T01:00:06;10.00;99.90
4509;DHT22;2267;48.816;9.230;2023-11-22T01:02:36;10.00;99.90
4509;DHT22;2267;48.816;9.230;2023-11-22T01:05:09;9.90;99.90
4509;DHT22;2267;48.816;9.230;2023-11-22T01:07:38;9.90;99.90
4509;DHT22;2267;48.816;9.230;2023-11-22T01:10:06;9.90;99.90
4509;DHT22;2267;48.816;9.230;2023-11-22T01:12:33;9.80;99.90
4509;DHT22;2267;48.816;9.230;2023-11-22T01:15:00;9.80;99.90
4509;DHT22;2267;48.816;9.230;2023-11-22T01:17:27;9.80;99.90
4509;DHT22;2267;48.816;9.230;2023-11-22T01:19:54;9.80;99.90
4509;DHT22;2267;48.816;9.230;2023-11-22T01:22:21;9.80;99.90
4509;DHT22;2267;48.816;9.230;2023-11-22T01:24:48;9.70;99.90
4509;DHT22;2267;48.816;9.230;2023-11-22T01:27:15;9.70;99.90
4509;DHT22;2267;48.816;9.230;2023-11-22T01:29:42;9.70;99.90
4509;DHT22;2267;48.816;9.230;2023-11-22T01:32:09;9.60;99.90
4509;DHT22;2267;48.816;9.230;2023-11-22T01:34:36;9.50;99.90
4509;DHT22;2267;48.816;9.230;2023-11-22T01:37:03;9.50;99.90
4509;DHT22;2267;48.816;9.230;2023-11-22T01:39:31;9.50;99.90
4509;DHT22;2267;48.816;9.230;2023-11-22T01:41:58;9.50;99.90
4509;DHT22;2267;48.816;9.230;2023-11-22T01:44:26;9.50;99.90
4509;DHT22;2267;48.816;9.230;2023-11-22T01:46:53;9.50;99.90
4509;DHT22;2267;48.816;9.230;2023-11-22T01:49:21;9.50;99.90
4509;DHT22;2267;48.816;9.230;2023-11-22T01:51:50;9.40;99.90
4509;DHT22;2267;48.816;9.230;2023-11-22T01:54:18;9.40;99.90
4509;DHT22;2267;48.816;9.230;2023-11-22T01:56:47;9.40;99.90
4509;DHT22;2267;48.816;9.230;2023-11-22T01:59:14;9.40;99.90
4509;DHT22;2267;48.816;9.230;2023-11-22T02:01:43;9.40;99.90
4509;DHT22;2267;48.816;9.230;2023-11-22T02:04:12;9.40;99.90
4509;DHT22;2267;48.816;9.230;2023-11-22T02:06:40;9.40;99.90
4509;DHT22;2267;48.816;9.230;2023-11-22T02:09:07;9.30;99.90
4509;DHT22;2267;48.816;9.230;2023-11-22T02:11:40;9.20;99.90
4509;DHT22;2267;48.816;9.230;2023-11-22T02:14:08;9.20;99.90
4509;DHT22;2267;48.816;9.230;2023-11-22T02:16:36;9.20;99.90
4509;DHT22;2267;48.816;9.230;2023-11-22T02:19:06;9.20;99.90
4509;DHT22;2267;48.816;9.230;2023-11-22T02:21:33;9.20;99.90
4509;DHT22;2267;48.816;9.230;2023-11-22T02:24:00;9.20;99.90
4509;DHT22;2267;48.816;9.230;2023-11-22T02:26:28;9.20;99.90
4509;DHT22;2267;48.816;9.230;2023-11-22T02:28:55;9.20;99.90
4509;DHT22;2267;48.816;9.230;2023-11-22T02:31:22;9.20;99.90
4509;DHT22;2267;48.816;9.230;2023-11-22T02:33:50;9.10;99.90
4509;DHT22;2267;48.816;9.230;2023-11-22T02:36:17;9.10;99.90
4509;DHT22;2267;48.816;9.230;2023-11-22T02:38:44;9.20;99.90
4509;DHT22;2267;48.816;9.230;2023-11-22T02:41:12;9.10;99.90
4509;DHT22;2267;48.816;9.230;2023-11-22T02:43:40;9.10;99.90
4509;DHT22;2267;48.816;9.230;2023-11-22T02:46:11;9.10;99.90
4509;DHT22;2267;48.816;9.230;2023-11-22T02:48:37;9.10;99.90
4509;DHT22;2267;48.816;9.230;2023-11-22T02:51:04;9.00;99.90
4509;DHT22;2267;48.816;9.230;2023-11-22T02:53:33;9.00;99.90
4509;DHT22;2267;48.816;9.230;2023-11-22T02:56:00;9.00;99.90
4509;DHT22;2267;48.816;9.230;2023-11-22T02:58:29;9.00;99.90
4509;DHT22;2267;48.816;9.230;2023-11-22T03:00:56;9.00;99.90
4509;DHT22;2267;48.816;9.230;2023-11-22T03:03:24;8.90;99.90
4509;DHT22;2267;48.816;9.230;2023-11-22T03:05:51;8.90;99.90
4509;DHT22;2267;48.816;9.230;2023-11-22T03:08:17;8.90;99.90
4509;DHT22;2267;48.816;9.230;2023-11-22T03:10:44;8.90;99.90
4509;DHT22;2267;48.816;9.230;2023-11-22T03:13:11;8.80;99.90
4509;DHT22;2267;48.816;9.230;2023-11-22T03:15:39;8.80;99.90
4509;DHT22;2267;48.816;9.230;2023-11-22T03:18:06;8.80;99.90
4509;DHT22;2267;48.816;9.230;2023-11-22T03:20:33;8.80;99.90
4509;DHT22;2267;48.816;9.230;2023-11-22T03:23:00;8.80;99.90
4509;DHT22;2267;48.816;9.230;2023-11-22T03:25:27;8.70;99.90
4509;DHT22;2267;48.816;9.230;2023-11-22T03:27:55;8.70;99.90
4509;DHT22;2267;48.816;9.230;2023-11-22T03:30:22;8.70;99.90
4509;DHT22;2267;48.816;9.230;2023-11-22T03:32:49;8.60;99.90
4509;DHT22;2267;48.816;9.230;2023-11-22T03:35:16;8.70;99.90
4509;DHT22;2267;48.816;9.230;2023-11-22T03:37:43;8.70;99.90
4509;DHT22;2267;48.816;9.230;2023-11-22T03:40:10;8.70;99.90
4509;DHT22;2267;48.816;9.230;2023-11-22T03:42:38;8.70;99.90
4509;DHT22;2267;48.816;9.230;2023-11-22T03:45:06;8.70;99.90
4509;DHT22;2267;48.816;9.230;2023-11-22T03:47:33;8.70;99.90
4509;DHT22;2267;48.816;9.230;2023-11-22T03:50:00;8.70;99.90
4509;DHT22;2267;48.816;9.230;2023-11-22T03:52:27;8.70;99.90
4509;DHT22;2267;48.816;9.230;2023-11-22T03:54:54;8.70;99.90
4509;DHT22;2267;48.816;9.230;2023-11-22T03:57:21;8.70;99.90
4509;DHT22;2267;48.816;9.230;2023-11-22T03:59:48;8.70;99.90
4509;DHT22;2267;48.816;9.230;2023-11-22T04:02:15;8.60;99.90
4509;DHT22;2267;48.816;9.230;2023-11-22T04:04:42;8.60;99.90
4509;DHT22;2267;48.816;9.230;2023-11-22T04:07:09;8.60;99.90
4509;DHT22;2267;48.816;9.230;2023-11-22T04:09:36;8.60;99.90
4509;DHT22;2267;48.816;9.230;2023-11-22T04:12:03;8.60;99.90
4509;DHT22;2267;48.816;9.230;2023-11-22T04:14:30;8.60;99.90
4509;DHT22;2267;48.816;9.230;2023-11-22T04:16:58;8.60;99.90
4509;DHT22;2267;48.816;9.230;2023-11-22T04:19:25;8.60;99.90
4509;DHT22;2267;48.816;9.230;2023-11-22T04:21:52;8.60;99.90
4509;DHT22;2267;48.816;9.230;2023-11-22T04:24:20;8.50;99.90
4509;DHT22;2267;48.816;9.230;2023-11-22T04:26:48;8.50;99.90
4509;DHT22;2267;48.816;9.230;2023-11-22T04:29:15;8.50;99.90
4509;DHT22;2267;48.816;9.230;2023-11-22T04:31:43;8.50;99.90
4509;DHT22;2267;48.816;9.230;2023-11-22T04:34:11;8.50;99.90
4509;DHT22;2267;48.816;9.230;2023-11-22T04:36:38;8.50;99.90
4509;DHT22;2267;48.816;9.230;2023-11-22T04:39:08;8.50;99.90
4509;DHT22;2267;48.816;9.230;2023-11-22T04:41:36;8.50;99.90
4509;DHT22;2267;48.816;9.230;2023-11-22T04:44:03;8.50;99.90
4509;DHT22;2267;48.816;9.230;2023-11-22T04:46:30;8.50;99.90
4509;DHT22;2267;48.816;9.230;2023-11-22T04:48:58;8.50;99.90
4509;DHT22;2267;48.816;9.230;2023-11-22T04:51:25;8.50;99.90
4509;DHT22;2267;48.816;9.230;2023-11-22T04:53:53;8.50;99.90
4509;DHT22;2267;48.816;9.230;2023-11-22T04:56:19;8.40;99.90
4509;DHT22;2267;48.816;9.230;2023-11-22T04:58:46;8.50;99.90
4509;DHT22;2267;48.816;9.230;2023-11-22T05:01:13;8.50;99.90
4509;DHT22;2267;48.816;9.230;2023-11-22T05:03:44;8.40;99.90
4509;DHT22;2267;48.816;9.230;2023-11-22T05:06:11;8.40;99.90
4509;DHT22;2267;48.816;9.230;2023-11-22T05:08:37;8.40;99.90
4509;DHT22;2267;48.816;9.230;2023-11-22T05:11:05;8.40;99.90
4509;DHT22;2267;48.816;9.230;2023-11-22T05:13:32;8.40;99.90
4509;DHT22;2267;48.816;9.230;2023-11-22T05:15:58;8.40;99.90
4509;DHT22;2267;48.816;9.230;2023-11-22T05:18:25;8.40;99.90
4509;DHT22;2267;48.816;9.230;2023-11-22T05:20:52;8.40;99.90
4509;DHT22;2267;48.816;9.230;2023-11-22T05:23:19;8.40;99.90
4509;DHT22;2267;48.816;9.230;2023-11-22T05:25:46;8.40;99.90
4509;DHT22;2267;48.816;9.230;2023-11-22T05:28:12;8.40;99.90
4509;DHT22;2267;48.816;9.230;2023-11-22T05:30:39;8.50;99.90
4509;DHT22;2267;48.816;9.230;2023-11-22T05:33:07;8.40;99.90
4509;DHT22;2267;48.816;9.230;2023-11-22T05:35:34;8.40;99.90
4509;DHT22;2267;48.816;9.230;2023-11-22T05:38:01;8.40;99.90
4509;DHT22;2267;48.816;9.230;2023-11-22T05:40:29;8.40;99.90
4509;DHT22;2267;48.816;9.230;2023-11-22T05:42:55;8.40;99.90
4509;DHT22;2267;48.816;9.230;2023-11-22T05:45:22;8.30;99.90
4509;DHT22;2267;48.816;9.230;2023-11-22T05:47:51;8.30;99.90
4509;DHT22;2267;48.816;9.230;2023-11-22T05:50:18;8.30;99.90
4509;DHT22;2267;48.816;9.230;2023-11-22T05:52:45;8.30;99.90
4509;DHT22;2267;48.816;9.230;2023-11-22T05:55:11;8.30;99.90
4509;DHT22;2267;48.816;9.230;2023-11-22T05:57:41;8.30;99.90
4509;DHT22;2267;48.816;9.230;2023-11-22T06:00:08;8.30;99.90
4509;DHT22;2267;48.816;9.230;2023-11-22T06:02:36;8.30;99.90
4509;DHT22;2267;48.816;9.230;2023-11-22T06:05:06;8.20;99.90
4509;DHT22;2267;48.816;9.230;2023-11-22T06:07:33;8.30;99.90
4509;DHT22;2267;48.816;9.230;2023-11-22T06:10:00;8.20;99.90
4509;DHT22;2267;48.816;9.230;2023-11-22T06:12:29;8.20;99.90
4509;DHT22;2267;48.816;9.230;2023-11-22T06:14:56;8.20;99.90
4509;DHT22;2267;48.816;9.230;2023-11-22T06:17:22;8.20;99.90
4509;DHT22;2267;48.816;9.230;2023-11-22T06:19:49;8.20;99.90
4509;DHT22;2267;48.816;9.230;2023-11-22T06:22:16;8.20;99.90
4509;DHT22;2267;48.816;9.230;2023-11-22T06:24:43;8.20;99.90
4509;DHT22;2267;48.816;9.230;2023-11-22T06:27:10;8.20;99.90
4509;DHT22;2267;48.816;9.230;2023-11-22T06:29:37;8.20;99.90
4509;DHT22;2267;48.816;9.230;2023-11-22T06:32:04;8.20;99.90
4509;DHT22;2267;48.816;9.230;2023-11-22T06:34:33;8.10;99.90
4509;DHT22;2267;48.816;9.230;2023-11-22T06:37:03;8.10;99.90
4509;DHT22;2267;48.816;9.230;2023-11-22T06:39:30;8.10;99.90
4509;DHT22;2267;48.816;9.230;2023-11-22T06:41:57;8.10;99.90
4509;DHT22;2267;48.816;9.230;2023-11-22T06:44:24;8.00;99.90
4509;DHT22;2267;48.816;9.230;2023-11-22T06:46:51;8.10;99.90
4509;DHT22;2267;48.816;9.230;2023-11-22T06:49:19;8.10;99.90
4509;DHT22;2267;48.816;9.230;2023-11-22T06:51:45;8.10;99.90
4509;DHT22;2267;48.816;9.230;2023-11-22T06:54:13;8.10;99.90
4509;DHT22;2267;48.816;9.230;2023-11-22T06:56:39;8.10;99.90
4509;DHT22;2267;48.816;9.230;2023-11-22T06:59:06;8.10;99.90
4509;DHT22;2267;48.816;9.230;2023-11-22T07:01:33;8.10;99.90
4509;DHT22;2267;48.816;9.230;2023-11-22T07:04:00;8.00;99.90
4509;DHT22;2267;48.816;9.230;2023-11-22T07:06:30;8.00;99.90
4509;DHT22;2267;48.816;9.230;2023-11-22T07:08:57;8.00;99.90
4509;DHT22;2267;48.816;9.230;2023-11-22T07:11:25;8.00;99.90
4509;DHT22;2267;48.816;9.230;2023-11-22T07:13:53;8.00;99.90
4509;DHT22;2267;48.816;9.230;2023-11-22T07:16:20;7.90;99.90
4509;DHT22;2267;48.816;9.230;2023-11-22T07:18:47;7.90;99.90
4509;DHT22;2267;48.816;9.230;2023-11-22T07:21:14;7.90;99.90
4509;DHT22;2267;48.816;9.230;2023-11-22T07:23:41;7.80;99.90
4509;DHT22;2267;48.816;9.230;2023-11-22T07:26:08;7.80;99.90
4509;DHT22;2267;48.816;9.230;2023-11-22T07:28:35;7.80;99.90
4509;DHT22;2267;48.816;9.230;2023-11-22T07:31:07;7.80;99.90
4509;DHT22;2267;48.816;9.230;2023-11-22T07:33:34;7.80;99.90
4509;DHT22;2267;48.816;9.230;2023-11-22T07:36:01;7.80;99.90
4509;DHT22;2267;48.816;9.230;2023-11-22T07:38:29;7.70;99.90
4509;DHT22;2267;48.816;9.230;2023-11-22T07:40:58;7.80;99.90
4509;DHT22;2267;48.816;9.230;2023-11-22T07:43:25;7.80;99.90
4509;DHT22;2267;48.816;9.230;2023-11-22T07:45:51;7.70;99.90
4509;DHT22;2267;48.816;9.230;2023-11-22T07:48:19;7.70;99.90
4509;DHT22;2267;48.816;9.230;2023-11-22T07:50:46;7.70;99.90
4509;DHT22;2267;48.816;9.230;2023-11-22T07:53:16;7.70;99.90
4509;DHT22;2267;48.816;9.230;2023-11-22T07:55:44;7.70;99.90
4509;DHT22;2267;48.816;9.230;2023-11-22T07:58:11;7.60;99.90
4509;DHT22;2267;48.816;9.230;2023-11-22T08:00:38;7.60;99.90
4509;DHT22;2267;48.816;9.230;2023-11-22T08:03:05;7.60;99.90
4509;DHT22;2267;48.816;9.230;2023-11-22T08:05:33;7.60;99.90
4509;DHT22;2267;48.816;9.230;2023-11-22T08:08:03;7.60;99.90
4509;DHT22;2267;48.816;9.230;2023-11-22T08:10:35;7.50;99.90
4509;DHT22;2267;48.816;9.230;2023-11-22T08:13:02;7.50;99.90
4509;DHT22;2267;48.816;9.230;2023-11-22T08:15:30;7.50;99.90
4509;DHT22;2267;48.816;9.230;2023-11-22T08:17:58;7.40;99.90
4509;DHT22;2267;48.816;9.230;2023-11-22T08:20:27;7.40;99.90
4509;DHT22;2267;48.816;9.230;2023-11-22T08:22:54;7.40;99.90
4509;DHT22;2267;48.816;9.230;2023-11-22T08:25:21;7.40;99.90
4509;DHT22;2267;48.816;9.230;2023-11-22T08:27:48;7.40;99.90
4509;DHT22;2267;48.816;9.230;2023-11-22T08:30:15;7.40;99.90
4509;DHT22;2267;48.816;9.230;2023-11-22T08:32:45;7.40;99.90
4509;DHT22;2267;48.816;9.230;2023-11-22T08:35:18;7.40;99.90
4509;DHT22;2267;48.816;9.230;2023-11-22T08:37:45;7.40;99.90
4509;DHT22;2267;48.816;9.230;2023-11-22T08:40:13;7.40;99.90
4509;DHT22;2267;48.816;9.230;2023-11-22T08:42:47;7.40;99.90
4509;DHT22;2267;48.816;9.230;2023-11-22T08:45:14;7.40;99.90
4509;DHT22;2267;48.816;9.230;2023-11-22T08:47:42;7.40;99.90
4509;DHT22;2267;48.816;9.230;2023-11-22T08:50:09;7.40;99.90
4509;DHT22;2267;48.816;9.230;2023-11-22T08:52:41;7.40;99.90
4509;DHT22;2267;48.816;9.230;2023-11-22T08:55:12;7.40;99.90
4509;DHT22;2267;48.816;9.230;2023-11-22T08:57:41;7.30;99.90
4509;DHT22;2267;48.816;9.230;2023-11-22T09:00:08;7.40;99.90
4509;DHT22;2267;48.816;9.230;2023-11-22T09:02:36;7.30;99.90
4509;DHT22;2267;48.816;9.230;2023-11-22T09:05:05;7.30;99.90
4509;DHT22;2267;48.816;9.230;2023-11-22T09:07:37;7.30;99.90
4509;DHT22;2267;48.816;9.230;2023-11-22T09:10:06;7.30;99.90
4509;DHT22;2267;48.816;9.230;2023-11-22T09:12:37;7.30;99.90
4509;DHT22;2267;48.816;9.230;2023-11-22T09:15:11;7.30;99.90
4509;DHT22;2267;48.816;9.230;2023-11-22T09:17:41;7.30;99.90
4509;DHT22;2267;48.816;9.230;2023-11-22T09:20:14;7.30;99.90
4509;DHT22;2267;48.816;9.230;2023-11-22T09:22:47;7.40;99.90
4509;DHT22;2267;48.816;9.230;2023-11-22T09:25:18;7.30;99.90
4509;DHT22;2267;48.816;9.230;2023-11-22T09:27:50;7.30;99.90
4509;DHT22;2267;48.816;9.230;2023-11-22T09:30:23;7.40;99.90
4509;DHT22;2267;48.816;9.230;2023-11-22T09:33:03;7.40;99.90
4509;DHT22;2267;48.816;9.230;2023-11-22T09:35:30;7.40;99.90
4509;DHT22;2267;48.816;9.230;2023-11-22T09:38:06;7.40;99.90
4509;DHT22;2267;48.816;9.230;2023-11-22T09:40:47;7.40;99.90
4509;DHT22;2267;48.816;9.230;2023-11-22T09:43:17;7.40;99.90
4509;DHT22;2267;48.816;9.230;2023-11-22T09:45:48;7.40;99.90
4509;DHT22;2267;48.816;9.230;2023-11-22T09:48:22;7.50;99.90
4509;DHT22;2267;48.816;9.230;2023-11-22T09:51:28;7.50;99.90
4509;DHT22;2267;48.816;9.230;2023-11-22T09:53:57;7.40;99.90
4509;DHT22;2267;48.816;9.230;2023-11-22T09:56:27;7.50;99.90
4509;DHT22;2267;48.816;9.230;2023-11-22T09:58:55;7.50;99.90
4509;DHT22;2267;48.816;9.230;2023-11-22T10:01:24;7.50;99.90
4509;DHT22;2267;48.816;9.230;2023-11-22T10:03:51;7.50;99.90
4509;DHT22;2267;48.816;9.230;2023-11-22T10:06:19;7.50;99.90
4509;DHT22;2267;48.816;9.230;2023-11-22T10:08:47;7.50;99.90
4509;DHT22;2267;48.816;9.230;2023-11-22T10:11:18;7.40;99.90
4509;DHT22;2267;48.816;9.230;2023-11-22T10:13:49;7.50;99.90
4509;DHT22;2267;48.816;9.230;2023-11-22T10:16:18;7.50;99.90
4509;DHT22;2267;48.816;9.230;2023-11-22T10:18:47;7.40;99.90
4509;DHT22;2267;48.816;9.230;2023-11-22T10:21:24;7.40;99.90
4509;DHT22;2267;48.816;9.230;2023-11-22T10:26:24;7.40;99.90
4509;DHT22;2267;48.816;9.230;2023-11-22T10:28:53;7.40;99.90
4509;DHT22;2267;48.816;9.230;2023-11-22T10:31:21;7.40;99.90
4509;DHT22;2267;48.816;9.230;2023-11-22T10:33:49;7.40;99.90
4509;DHT22;2267;48.816;9.230;2023-11-22T10:36:16;7.40;99.90
4509;DHT22;2267;48.816;9.230;2023-11-22T10:38:46;7.40;99.90
4509;DHT22;2267;48.816;9.230;2023-11-22T10:41:13;7.40;99.90
4509;DHT22;2267;48.816;9.230;2023-11-22T10:43:41;7.40;99.90
4509;DHT22;2267;48.816;9.230;2023-11-22T10:46:13;7.50;99.90
4509;DHT22;2267;48.816;9.230;2023-11-22T10:48:40;7.50;99.90
4509;DHT22;2267;48.816;9.230;2023-11-22T10:51:12;7.50;99.90
4509;DHT22;2267;48.816;9.230;2023-11-22T10:53:45;7.50;99.90
4509;DHT22;2267;48.816;9.230;2023-11-22T10:56:17;7.50;99.90
4509;DHT22;2267;48.816;9.230;2023-11-22T10:58:50;7.60;99.90
4509;DHT22;2267;48.816;9.230;2023-11-22T11:01:18;7.50;99.90
4509;DHT22;2267;48.816;9.230;2023-11-22T11:03:53;7.50;99.90
4509;DHT22;2267;48.816;9.230;2023-11-22T11:06:31;7.50;99.90
4509;DHT22;2267;48.816;9.230;2023-11-22T11:09:04;7.50;99.90
4509;DHT22;2267;48.816;9.230;2023-11-22T11:11:38;7.60;99.90
4509;DHT22;2267;48.816;9.230;2023-11-22T11:14:08;7.60;99.90
4509;DHT22;2267;48.816;9.230;2023-11-22T11:16:39;7.60;99.90
4509;DHT22;2267;48.816;9.230;2023-11-22T11:19:08;7.60;99.90
4509;DHT22;2267;48.816;9.230;2023-11-22T11:21:36;7.60;99.90
4509;DHT22;2267;48.816;9.230;2023-11-22T11:24:03;7.60;99.90
4509;DHT22;2267;48.816;9.230;2023-11-22T11:26:33;7.60;99.90
4509;DHT22;2267;48.816;9.230;2023-11-22T11:29:04;7.60;99.90
4509;DHT22;2267;48.816;9.230;2023-11-22T11:31:34;7.50;99.90
4509;DHT22;2267;48.816;9.230;2023-11-22T11:34:06;7.60;99.90
4509;DHT22;2267;48.816;9.230;2023-11-22T11:36:34;7.60;99.90
4509;DHT22;2267;48.816;9.230;2023-11-22T11:39:12;7.50;99.90
4509;DHT22;2267;48.816;9.230;2023-11-22T11:41:42;7.60;99.90
4509;DHT22;2267;48.816;9.230;2023-11-22T11:44:10;7.50;99.90
4509;DHT22;2267;48.816;9.230;2023-11-22T11:46:39;7.50;99.90
4509;DHT22;2267;48.816;9.230;2023-11-22T11:49:07;7.50;99.90
4509;DHT22;2267;48.816;9.230;2023-11-22T11:51:35;7.50;99.90
4509;DHT22;2267;48.816;9.230;2023-11-22T11:54:03;7.50;99.90
4509;DHT22;2267;48.816;9.230;2023-11-22T11:56:32;7.50;99.90
4509;DHT22;2267;48.816;9.230;2023-11-22T11:59:01;7.50;99.90
4509;DHT22;2267;48.816;9.230;2023-11-22T12:01:29;7.50;99.90
4509;DHT22;2267;48.816;9.230;2023-11-22T12:07:12;7.50;99.90
4509;DHT22;2267;48.816;9.230;2023-11-22T12:09:39;7.50;99.90
4509;DHT22;2267;48.816;9.230;2023-11-22T12:12:07;7.50;99.90
4509;DHT22;2267;48.816;9.230;2023-11-22T12:14:34;7.50;99.90
4509;DHT22;2267;48.816;9.230;2023-11-22T12:17:01;7.50;99.90
4509;DHT22;2267;48.816;9.230;2023-11-22T12:19:30;7.50;99.90
4509;DHT22;2267;48.816;9.230;2023-11-22T12:21:58;7.50;99.90
4509;DHT22;2267;48.816;9.230;2023-11-22T12:24:25;7.50;99.90
4509;DHT22;2267;48.816;9.230;2023-11-22T12:26:52;7.50;99.90
4509;DHT22;2267;48.816;9.230;2023-11-22T12:29:23;7.40;99.90
4509;DHT22;2267;48.816;9.230;2023-11-22T12:31:51;7.50;99.90
4509;DHT22;2267;48.816;9.230;2023-11-22T12:34:19;7.40;99.90
4509;DHT22;2267;48.816;9.230;2023-11-22T12:36:47;7.40;99.90
4509;DHT22;2267;48.816;9.230;2023-11-22T12:39:14;7.40;99.90
4509;DHT22;2267;48.816;9.230;2023-11-22T12:41:49;7.40;99.90
4509;DHT22;2267;48.816;9.230;2023-11-22T12:44:32;7.40;99.90
4509;DHT22;2267;48.816;9.230;2023-11-22T12:47:00;7.40;99.90
4509;DHT22;2267;48.816;9.230;2023-11-22T12:49:31;7.40;99.90
4509;DHT22;2267;48.816;9.230;2023-11-22T12:51:59;7.40;99.90
4509;DHT22;2267;48.816;9.230;2023-11-22T12:54:26;7.40;99.90
4509;DHT22;2267;48.816;9.230;2023-11-22T12:56:54;7.40;99.90
4509;DHT22;2267;48.816;9.230;2023-11-22T12:59:24;7.30;99.90
4509;DHT22;2267;48.816;9.230;2023-11-22T13:01:54;7.30;99.90
4509;DHT22;2267;48.816;9.230;2023-11-22T13:04:22;7.30;99.90
4509;DHT22;2267;48.816;9.230;2023-11-22T13:06:49;7.40;99.90
4509;DHT22;2267;48.816;9.230;2023-11-22T13:09:17;7.40;99.90
4509;DHT22;2267;48.816;9.230;2023-11-22T13:11:44;7.40;99.90
4509;DHT22;2267;48.816;9.230;2023-11-22T13:14:12;7.40;99.90
4509;DHT22;2267;48.816;9.230;2023-11-22T13:16:43;7.40;99.90
4509;DHT22;2267;48.816;9.230;2023-11-22T13:19:11;7.40;99.90
4509;DHT22;2267;48.816;9.230;2023-11-22T13:21:38;7.40;99.90
4509;DHT22;2267;48.816;9.230;2023-11-22T13:24:07;7.30;99.90
4509;DHT22;2267;48.816;9.230;2023-11-22T13:26:34;7.30;99.90
4509;DHT22;2267;48.816;9.230;2023-11-22T13:29:01;7.30;99.90
4509;DHT22;2267;48.816;9.230;2023-11-22T13:31:28;7.30;99.90
4509;DHT22;2267;48.816;9.230;2023-11-22T13:33:56;7.30;99.90
4509;DHT22;2267;48.816;9.230;2023-11-22T13:36:22;7.30;99.90
4509;DHT22;2267;48.816;9.230;2023-11-22T13:38:50;7.30;99.90
4509;DHT22;2267;48.816;9.230;2023-11-22T13:41:17;7.30;99.90
4509;DHT22;2267;48.816;9.230;2023-11-22T13:43:44;7.30;99.90
4509;DHT22;2267;48.816;9.230;2023-11-22T13:46:13;7.30;99.90
4509;DHT22;2267;48.816;9.230;2023-11-22T13:48:42;7.30;99.90
4509;DHT22;2267;48.816;9.230;2023-11-22T13:51:09;7.20;99.90
4509;DHT22;2267;48.816;9.230;2023-11-22T13:53:37;7.20;99.90
4509;DHT22;2267;48.816;9.230;2023-11-22T13:56:10;7.20;99.90
4509;DHT22;2267;48.816;9.230;2023-11-22T13:58:37;7.30;99.90
4509;DHT22;2267;48.816;9.230;2023-11-22T14:01:04;7.30;99.90
4509;DHT22;2267;48.816;9.230;2023-11-22T14:03:36;7.20;99.90
4509;DHT22;2267;48.816;9.230;2023-11-22T14:06:03;7.30;99.90
4509;DHT22;2267;48.816;9.230;2023-11-22T14:08:31;7.20;99.90
4509;DHT22;2267;48.816;9.230;2023-11-22T14:10:58;7.20;99.90
4509;DHT22;2267;48.816;9.230;2023-11-22T14:13:26;7.30;99.90
4509;DHT22;2267;48.816;9.230;2023-11-22T14:15:52;7.30;99.90
4509;DHT22;2267;48.816;9.230;2023-11-22T14:18:19;7.30;99.90
4509;DHT22;2267;48.816;9.230;2023-11-22T14:20:46;7.20;99.90
4509;DHT22;2267;48.816;9.230;2023-11-22T14:23:13;7.20;99.90
4509;DHT22;2267;48.816;9.230;2023-11-22T14:25:40;7.20;99.90
4509;DHT22;2267;48.816;9.230;2023-11-22T14:28:08;7.20;99.90
4509;DHT22;2267;48.816;9.230;2023-11-22T14:30:35;7.30;99.90
4509;DHT22;2267;48.816;9.230;2023-11-22T14:33:03;7.20;99.90
4509;DHT22;2267;48.816;9.230;2023-11-22T14:35:35;7.20;99.90
4509;DHT22;2267;48.816;9.230;2023-11-22T14:38:02;7.20;99.90
4509;DHT22;2267;48.816;9.230;2023-11-22T14:40:32;7.20;99.90
4509;DHT22;2267;48.816;9.230;2023-11-22T14:43:00;7.20;99.90
4509;DHT22;2267;48.816;9.230;2023-11-22T14:45:30;7.20;99.90
4509;DHT22;2267;48.816;9.230;2023-11-22T14:48:00;7.20;99.90
4509;DHT22;2267;48.816;9.230;2023-11-22T14:50:28;7.20;99.90
4509;DHT22;2267;48.816;9.230;2023-11-22T14:52:55;7.20;99.90
4509;DHT22;2267;48.816;9.230;2023-11-22T14:55:23;7.20;99.90
4509;DHT22;2267;48.816;9.230;2023-11-22T14:57:52;7.20;99.90
4509;DHT22;2267;48.816;9.230;2023-11-22T15:00:24;7.20;99.90
4509;DHT22;2267;48.816;9.230;2023-11-22T15:02:52;7.20;99.90
4509;DHT22;2267;48.816;9.230;2023-11-22T15:05:21;7.10;99.90
4509;DHT22;2267;48.816;9.230;2023-11-22T15:07:49;7.10;99.90
4509;DHT22;2267;48.816;9.230;2023-11-22T15:10:22;7.10;99.90
4509;DHT22;2267;48.816;9.230;2023-11-22T15:12:48;7.10;99.90
4509;DHT22;2267;48.816;9.230;2023-11-22T15:15:15;7.10;99.90
4509;DHT22;2267;48.816;9.230;2023-11-22T15:17:43;7.10;99.90
4509;DHT22;2267;48.816;9.230;2023-11-22T15:20:11;7.10;99.90
4509;DHT22;2267;48.816;9.230;2023-11-22T15:22:40;7.10;99.90
4509;DHT22;2267;48.816;9.230;2023-11-22T15:25:08;7.10;99.90
4509;DHT22;2267;48.816;9.230;2023-11-22T15:27:36;7.10;99.90
4509;DHT22;2267;48.816;9.230;2023-11-22T15:30:03;7.10;99.90
4509;DHT22;2267;48.816;9.230;2023-11-22T15:32:31;7.10;99.90
4509;DHT22;2267;48.816;9.230;2023-11-22T15:35:00;7.10;99.90
4509;DHT22;2267;48.816;9.230;2023-11-22T15:37:27;7.10;99.90
4509;DHT22;2267;48.816;9.230;2023-11-22T15:39:56;7.10;99.90
4509;DHT22;2267;48.816;9.230;2023-11-22T15:42:23;7.10;99.90
4509;DHT22;2267;48.816;9.230;2023-11-22T15:44:50;7.10;99.90
4509;DHT22;2267;48.816;9.230;2023-11-22T15:47:18;7.10;99.90
4509;DHT22;2267;48.816;9.230;2023-11-22T15:49:46;7.10;99.80
4509;DHT22;2267;48.816;9.230;2023-11-22T15:52:13;7.10;99.60
4509;DHT22;2267;48.816;9.230;2023-11-22T15:54:39;7.00;99.70
4509;DHT22;2267;48.816;9.230;2023-11-22T15:57:06;7.00;99.90
4509;DHT22;2267;48.816;9.230;2023-11-22T15:59:33;7.00;99.90
4509;DHT22;2267;48.816;9.230;2023-11-22T16:02:00;7.00;99.90
4509;DHT22;2267;48.816;9.230;2023-11-22T16:04:28;7.00;99.90
4509;DHT22;2267;48.816;9.230;2023-11-22T16:06:54;7.10;99.90
4509;DHT22;2267;48.816;9.230;2023-11-22T16:09:21;7.10;99.90
4509;DHT22;2267;48.816;9.230;2023-11-22T16:11:48;7.00;99.80
4509;DHT22;2267;48.816;9.230;2023-11-22T16:14:15;7.00;99.90
4509;DHT22;2267;48.816;9.230;2023-11-22T16:16:42;7.00;99.90
4509;DHT22;2267;48.816;9.230;2023-11-22T16:19:09;7.00;99.90
4509;DHT22;2267;48.816;9.230;2023-11-22T16:21:37;7.10;99.90
4509;DHT22;2267;48.816;9.230;2023-11-22T16:24:06;7.00;99.90
4509;DHT22;2267;48.816;9.230;2023-11-22T16:26:33;7.00;99.60
4509;DHT22;2267;48.816;9.230;2023-11-22T16:29:00;7.00;99.90